Hauptseite
METAR-TAF:

METAR-TAF

Flughäfen :

Schleswig-Jagel, Deutschland

Fliegerhorst Schleswig

Breite: 54-28N, Länge: 009-31E, Höhe: 22 m

Beobachtung

Neuester Wetterbericht von vor 25 Minuten, um 13:20 UTC
Wind 16 kt aus Ost
Temperatur 1°C
Luftfeuchtigkeit 55%
Luftdruck 1033 hPa
Sichtweite 10 km oder mehr

METAR: ETNS 241320Z AUTO 09016KT 9999 // ////// 01/M07 Q1033 ///

Zeit: 14:45 (13:45 UTC)

Prognose

Neuester Wetterbericht von vor 29 Stunden und 30 Minuten, um 08:15 UTC
Gültige Prognose vom 23 um 09 UTC bis 23 um 18 UTC
Wind 10 kt aus Ost
Sichtweite 10 km oder mehr
Leicht bewölkt in der Höhe von 4000 ft
Aufgelockert bewölkt in der Höhe von 24000 ft

TAF: ETNS 230815Z 2309/2318 08010KT 9999 NSW FEW040 SCT240 BY ETGL

Wetterbeobachtungen und Prognosen von mehr als 4000 Flughäfen (METAR und TAF Bericht).

Die verfügbaren Stationen werden durch gelbe und rote Markierungen auf der Karte dargestellt.

Führen Sie die Maus auf sie, um den Namen der Station zu sehen.

Darauf klicken, um die Beobachtung von Wetterbeobachtungen und Prognosen zu sehen.

Um die Karte zu ändern : klicken Sie auf den grünen Tasten mit einem schwarzen Kreuz Zum Vergrößern, auf den grünen Button mit einem Gedankenstrich zu verkleinern, oder auf die grünen Pfeile für benachbarte Karten.


METAR-TAF: